Time;durP1;ratioP1;P1;durP2;ratioP2;P2;SDS_P1;SDS_P2;PMS_P1;PMS_P2;Temp;Humidity;BMP_temperature;BMP_pressure;BME280_temperature;BME280_humidity;BME280_pressure;Samples;Min_cycle;Max_cycle;Signal;HPM_P1;HPM_P2
2022/11/19 00:01:17;;;;;;;8.47;5.87;;;;;;;;;;5011703;28;20238;-85
2022/11/19 00:03:44;;;;;;;7.43;5.73;;;;;;;;;;5012085;28;20253;-85
2022/11/19 00:06:12;;;;;;;8.43;5.67;;;;;;;;;;5011771;28;20630;-85
2022/11/19 00:08:40;;;;;;;9.67;5.87;;;;;;;;;;5012248;28;20214;-86
2022/11/19 00:11:08;;;;;;;6.23;5.63;;;;;;;;;;5011557;28;20227;-85
2022/11/19 00:13:34;;;;;;;6.40;5.17;;;;;;;;;;5011910;28;20254;-85
2022/11/19 00:16:03;;;;;;;5.87;5.30;;;;;;;;;;5011711;28;20234;-85
2022/11/19 00:18:30;;;;;;;6.70;5.90;;;;;;;;;;5007754;28;20203;-85
2022/11/19 00:21:02;;;;;;;8.30;5.50;;;;;;;;;;5011461;28;20227;-85
2022/11/19 00:23:29;;;;;;;6.67;5.27;;;;;;;;;;5012015;28;20219;-85
2022/11/19 00:25:56;;;;;;;7.03;5.30;;;;;;;;;;5011465;28;20238;-85
2022/11/19 00:28:23;;;;;;;7.63;5.20;;;;;;;;;;5011982;28;20252;-85
2022/11/19 00:30:50;;;;;;;10.30;5.83;;;;;;;;;;5011344;28;20227;-85
2022/11/19 00:33:19;;;;;;;7.63;6.07;;;;;;;;;;5011716;28;20231;-85
2022/11/19 00:35:46;;;;;;;8.93;5.83;;;;;;;;;;5011398;28;20231;-85
2022/11/19 00:38:13;;;;;;;13.47;5.83;;;;;;;;;;5011810;28;20206;-85
2022/11/19 00:40:40;;;;;;;9.03;5.60;;;;;;;;;;5011445;28;20236;-85
2022/11/19 00:45:52;;;;;;;7.03;6.13;;;;;;;;;;5014835;28;20262;-86
2022/11/19 00:48:20;;;;;;;8.70;6.03;;;;;;;;;;5015560;28;20207;-85
2022/11/19 00:50:47;;;;;;;9.07;6.40;;;;;;;;;;5014812;28;20235;-86
2022/11/19 00:53:14;;;;;;;14.17;7.07;;;;;;;;;;5015327;28;20895;-86
2022/11/19 00:55:41;;;;;;;15.47;8.10;;;;;;;;;;5014687;28;20258;-85
2022/11/19 00:58:08;;;;;;;10.43;7.87;;;;;;;;;;5015384;28;20199;-86
2022/11/19 01:00:35;;;;;;;11.93;8.70;;;;;;;;;;5014716;28;20219;-85
2022/11/19 01:03:02;;;;;;;14.90;9.40;;;;;;;;;;4995319;28;20876;-86
2022/11/19 01:05:31;;;;;;;13.10;9.53;;;;;;;;;;4998964;28;20648;-85
2022/11/19 01:07:58;;;;;;;19.53;10.17;;;;;;;;;;5015091;28;20207;-85
2022/11/19 01:10:25;;;;;;;13.80;9.67;;;;;;;;;;5014334;28;20218;-85
2022/11/19 01:15:37;;;;;;;15.60;9.13;;;;;;;;;;5014275;28;20198;-86
2022/11/19 01:18:04;;;;;;;11.80;8.43;;;;;;;;;;5014905;28;20211;-86
2022/11/19 01:20:33;;;;;;;10.03;7.40;;;;;;;;;;5014506;28;20207;-85
2022/11/19 01:23:00;;;;;;;13.23;7.37;;;;;;;;;;5014450;28;20701;-85
2022/11/19 01:25:27;;;;;;;8.20;6.50;;;;;;;;;;5014299;28;20563;-86
2022/11/19 01:27:54;;;;;;;8.73;6.47;;;;;;;;;;5014729;28;20211;-86
2022/11/19 01:30:21;;;;;;;10.47;7.13;;;;;;;;;;5014493;28;20257;-86
2022/11/19 01:32:48;;;;;;;8.30;6.80;;;;;;;;;;5014415;28;20235;-85
2022/11/19 01:35:16;;;;;;;15.03;7.47;;;;;;;;;;5014627;28;20208;-85
2022/11/19 01:37:44;;;;;;;7.77;6.00;;;;;;;;;;5014159;28;20227;-83
2022/11/19 01:40:11;;;;;;;7.77;6.33;;;;;;;;;;5014445;28;20215;-85
2022/11/19 01:42:52;;;;;;;6.80;6.07;;;;;;;;;;5013516;28;20702;-84
2022/11/19 01:45:25;;;;;;;10.17;6.40;;;;;;;;;;5013850;28;20220;-85
2022/11/19 01:47:53;;;;;;;7.90;7.10;;;;;;;;;;5014100;28;20203;-84
2022/11/19 01:50:20;;;;;;;8.30;6.67;;;;;;;;;;5013645;28;20234;-84
2022/11/19 01:52:49;;;;;;;7.70;6.33;;;;;;;;;;5014164;28;20223;-84
2022/11/19 01:55:17;;;;;;;7.73;6.50;;;;;;;;;;5013859;28;20207;-85
2022/11/19 01:57:44;;;;;;;11.03;6.37;;;;;;;;;;5010798;28;20232;-85
2022/11/19 02:00:12;;;;;;;6.97;5.97;;;;;;;;;;5014296;28;20207;-85
2022/11/19 02:02:39;;;;;;;10.30;5.90;;;;;;;;;;5012194;28;20250;-85
2022/11/19 02:05:07;;;;;;;9.37;6.27;;;;;;;;;;5013701;28;20323;-85
2022/11/19 02:07:35;;;;;;;6.70;5.63;;;;;;;;;;5013228;28;20672;-85
2022/11/19 02:10:06;;;;;;;7.57;5.53;;;;;;;;;;5013700;28;20290;-85
2022/11/19 02:12:39;;;;;;;7.20;6.13;;;;;;;;;;5013118;28;20241;-84
2022/11/19 02:15:09;;;;;;;8.53;5.90;;;;;;;;;;5013475;28;20194;-85
2022/11/19 02:17:42;;;;;;;6.90;5.67;;;;;;;;;;5012826;28;20242;-85
2022/11/19 02:20:26;;;;;;;5.90;5.20;;;;;;;;;;5013482;28;20211;-85
2022/11/19 02:23:02;;;;;;;9.10;5.83;;;;;;;;;;5013211;28;20219;-85
2022/11/19 02:25:38;;;;;;;7.60;5.20;;;;;;;;;;4993405;28;20208;-85
2022/11/19 02:28:23;;;;;;;5.37;4.87;;;;;;;;;;5013407;28;20235;-85
2022/11/19 02:30:53;;;;;;;8.87;4.53;;;;;;;;;;5008586;28;20235;-85
2022/11/19 02:33:23;;;;;;;3.97;3.50;;;;;;;;;;5012986;28;20715;-85
2022/11/19 02:35:52;;;;;;;3.50;3.20;;;;;;;;;;5012689;28;20230;-85
2022/11/19 02:38:24;;;;;;;4.63;3.90;;;;;;;;;;5012950;28;20215;-85
2022/11/19 02:40:55;;;;;;;4.30;4.00;;;;;;;;;;5012783;28;20230;-85
2022/11/19 02:43:24;;;;;;;2.63;2.43;;;;;;;;;;5012967;28;20318;-85
2022/11/19 02:45:54;;;;;;;2.50;2.40;;;;;;;;;;5012508;28;20233;-84
2022/11/19 02:48:23;;;;;;;2.93;2.73;;;;;;;;;;5013157;28;20191;-85
2022/11/19 02:50:52;;;;;;;2.90;2.70;;;;;;;;;;5012591;28;20231;-85
2022/11/19 02:53:19;;;;;;;3.30;2.50;;;;;;;;;;5012747;28;20227;-85
2022/11/19 02:56:09;;;;;;;3.50;2.33;;;;;;;;;;5012586;28;20231;-85
2022/11/19 03:06:47;;;;;;;2.20;2.00;;;;;;;;;;5011267;28;20237;-84
2022/11/19 03:09:14;;;;;;;1.97;1.87;;;;;;;;;;5012679;28;20253;-85
2022/11/19 03:11:45;;;;;;;2.10;2.00;;;;;;;;;;5011951;28;20398;-85
2022/11/19 03:17:06;;;;;;;2.20;1.80;;;;;;;;;;4992405;28;20242;-85
2022/11/19 03:19:36;;;;;;;2.93;2.03;;;;;;;;;;5003367;28;20200;-85
2022/11/19 03:22:05;;;;;;;2.00;1.90;;;;;;;;;;5011670;28;20249;-85
2022/11/19 03:24:34;;;;;;;2.20;2.10;;;;;;;;;;5012527;28;20238;-85
2022/11/19 03:27:05;;;;;;;2.10;2.00;;;;;;;;;;5011752;28;20234;-85
2022/11/19 03:29:33;;;;;;;2.70;2.40;;;;;;;;;;5012324;28;20188;-85
2022/11/19 03:32:02;;;;;;;4.17;2.43;;;;;;;;;;5011321;28;20239;-85
2022/11/19 03:34:32;;;;;;;2.20;2.10;;;;;;;;;;5011981;28;20217;-85
2022/11/19 03:37:00;;;;;;;2.40;2.30;;;;;;;;;;5011679;28;20238;-85
2022/11/19 03:39:28;;;;;;;2.87;2.63;;;;;;;;;;5012278;28;20205;-85
2022/11/19 03:41:55;;;;;;;3.13;2.63;;;;;;;;;;5011756;28;20247;-85
2022/11/19 03:44:25;;;;;;;2.90;2.70;;;;;;;;;;5012235;28;20227;-85
2022/11/19 03:46:54;;;;;;;2.83;2.63;;;;;;;;;;5011490;28;20245;-84
2022/11/19 03:49:25;;;;;;;2.97;2.77;;;;;;;;;;5012236;28;20211;-85
2022/11/19 03:51:56;;;;;;;3.33;3.10;;;;;;;;;;5011969;28;20235;-84
2022/11/19 03:54:23;;;;;;;3.50;3.20;;;;;;;;;;5012265;28;20192;-84
2022/11/19 03:56:51;;;;;;;4.23;2.90;;;;;;;;;;5011370;28;20242;-85
2022/11/19 03:59:18;;;;;;;2.87;2.67;;;;;;;;;;5006816;28;20227;-85
2022/11/19 04:01:47;;;;;;;3.60;3.30;;;;;;;;;;4992211;28;20247;-85
2022/11/19 04:07:00;;;;;;;3.40;3.10;;;;;;;;;;4996671;28;20234;-85
2022/11/19 04:09:27;;;;;;;3.57;3.27;;;;;;;;;;4992408;28;20212;-84
2022/11/19 04:11:54;;;;;;;3.50;3.20;;;;;;;;;;5002890;28;20242;-85
2022/11/19 04:14:21;;;;;;;3.73;3.43;;;;;;;;;;5011896;28;20206;-86
2022/11/19 04:16:48;;;;;;;4.03;3.33;;;;;;;;;;5011270;28;20317;-85
2022/11/19 04:19:16;;;;;;;3.10;2.90;;;;;;;;;;5014727;28;20682;-85
2022/11/19 04:21:43;;;;;;;3.47;3.20;;;;;;;;;;5015094;28;20737;-85
2022/11/19 04:24:12;;;;;;;3.97;3.67;;;;;;;;;;5015579;28;20254;-85
2022/11/19 04:26:39;;;;;;;3.20;3.00;;;;;;;;;;5015142;28;20239;-85
2022/11/19 04:29:06;;;;;;;3.60;3.30;;;;;;;;;;5015293;28;20668;-85
2022/11/19 04:31:33;;;;;;;4.30;3.90;;;;;;;;;;5014237;28;20699;-85
2022/11/19 04:34:00;;;;;;;3.90;3.60;;;;;;;;;;5022287;22;20236;-84
2022/11/19 04:36:27;;;;;;;4.60;4.20;;;;;;;;;;4994938;28;20242;-84
2022/11/19 04:38:54;;;;;;;3.90;3.53;;;;;;;;;;4995321;28;20646;-84
2022/11/19 04:41:23;;;;;;;4.33;4.00;;;;;;;;;;4995600;28;20228;-84
2022/11/19 04:43:50;;;;;;;3.90;3.60;;;;;;;;;;4994830;28;20231;-85
2022/11/19 04:46:17;;;;;;;3.90;3.50;;;;;;;;;;4995035;28;20223;-84
2022/11/19 04:48:44;;;;;;;3.77;3.37;;;;;;;;;;4995712;28;20208;-83
2022/11/19 04:51:11;;;;;;;3.43;3.13;;;;;;;;;;4995194;28;20243;-84
2022/11/19 04:53:38;;;;;;;3.90;3.60;;;;;;;;;;4991387;28;20232;-84
2022/11/19 04:56:06;;;;;;;3.60;3.30;;;;;;;;;;4994557;28;20232;-84
2022/11/19 04:58:34;;;;;;;3.87;3.57;;;;;;;;;;4995610;28;20287;-83
2022/11/19 05:01:01;;;;;;;4.10;3.80;;;;;;;;;;4982303;28;20227;-84
2022/11/19 05:03:28;;;;;;;3.67;3.40;;;;;;;;;;4995279;28;20592;-84
2022/11/19 05:05:56;;;;;;;3.90;3.60;;;;;;;;;;4983096;28;20245;-84
2022/11/19 05:08:23;;;;;;;5.17;4.10;;;;;;;;;;4993005;28;20209;-84
2022/11/19 05:10:50;;;;;;;4.70;4.30;;;;;;;;;;4993910;28;20234;-84
2022/11/19 05:13:17;;;;;;;4.73;4.23;;;;;;;;;;4989247;28;20232;-84
2022/11/19 05:15:46;;;;;;;4.83;4.43;;;;;;;;;;4982222;28;20234;-83
2022/11/19 05:18:13;;;;;;;5.53;4.93;;;;;;;;;;4994798;28;20576;-84
2022/11/19 05:20:40;;;;;;;5.70;5.20;;;;;;;;;;4991565;28;20583;-83
2022/11/19 05:23:08;;;;;;;5.80;5.20;;;;;;;;;;4994865;28;20227;-83
2022/11/19 05:25:35;;;;;;;6.00;5.40;;;;;;;;;;4994547;28;20238;-83
2022/11/19 05:28:02;;;;;;;5.77;5.27;;;;;;;;;;4994610;28;20218;-83
2022/11/19 05:30:29;;;;;;;5.60;4.93;;;;;;;;;;4993706;28;20204;-83
2022/11/19 05:32:57;;;;;;;6.27;5.67;;;;;;;;;;4994362;28;20239;-83
2022/11/19 05:35:24;;;;;;;6.30;5.70;;;;;;;;;;4994423;28;20203;-83
2022/11/19 05:37:52;;;;;;;7.33;5.57;;;;;;;;;;4993694;28;20226;-83
2022/11/19 05:40:19;;;;;;;5.93;5.37;;;;;;;;;;4994664;28;20563;-83
2022/11/19 05:42:46;;;;;;;5.60;5.00;;;;;;;;;;4994342;28;20234;-83
2022/11/19 05:45:13;;;;;;;7.27;5.80;;;;;;;;;;4993873;28;20220;-83
2022/11/19 05:47:40;;;;;;;7.30;6.07;;;;;;;;;;4993833;28;20691;-83
2022/11/19 05:50:09;;;;;;;6.93;6.30;;;;;;;;;;4994598;28;20210;-83
2022/11/19 05:52:36;;;;;;;7.13;6.43;;;;;;;;;;4992964;28;20243;-83
2022/11/19 05:55:03;;;;;;;6.93;6.07;;;;;;;;;;4993931;28;20200;-83
2022/11/19 05:57:30;;;;;;;7.60;6.80;;;;;;;;;;4993745;28;20230;-84
2022/11/19 05:59:57;;;;;;;7.27;6.40;;;;;;;;;;4994487;28;20215;-83
2022/11/19 06:02:24;;;;;;;7.43;6.47;;;;;;;;;;4983785;28;20227;-84
2022/11/19 06:04:51;;;;;;;6.83;6.07;;;;;;;;;;4987097;28;20227;-83
2022/11/19 06:07:20;;;;;;;6.93;6.23;;;;;;;;;;4993540;28;20246;-83
2022/11/19 06:09:47;;;;;;;6.83;6.07;;;;;;;;;;4985953;28;20213;-83
2022/11/19 06:12:14;;;;;;;6.97;6.27;;;;;;;;;;4993122;28;20239;-83
2022/11/19 06:14:41;;;;;;;8.20;7.17;;;;;;;;;;4993861;28;20670;-83
2022/11/19 06:17:08;;;;;;;7.57;6.73;;;;;;;;;;4993381;28;20237;-84
2022/11/19 06:19:35;;;;;;;9.80;6.10;;;;;;;;;;4988663;28;20289;-83
2022/11/19 06:22:04;;;;;;;8.07;7.27;;;;;;;;;;4980010;28;20242;-84
2022/11/19 06:24:32;;;;;;;8.33;6.93;;;;;;;;;;4993179;28;20304;-83
2022/11/19 06:26:59;;;;;;;9.83;6.37;;;;;;;;;;4984004;28;20230;-82
2022/11/19 06:29:26;;;;;;;8.13;6.47;;;;;;;;;;4993583;28;20215;-82
2022/11/19 06:31:53;;;;;;;7.80;6.97;;;;;;;;;;5001833;28;20256;-82
2022/11/19 06:34:20;;;;;;;7.80;6.30;;;;;;;;;;4994411;28;20234;-83
2022/11/19 06:36:47;;;;;;;7.70;6.83;;;;;;;;;;4995401;28;20607;-81
2022/11/19 06:39:15;;;;;;;7.47;6.70;;;;;;;;;;4991246;28;20205;-80
2022/11/19 06:41:43;;;;;;;6.60;5.97;;;;;;;;;;4996485;28;20229;-81
2022/11/19 06:44:10;;;;;;;8.97;6.83;;;;;;;;;;5001923;28;20222;-81
2022/11/19 06:46:37;;;;;;;7.73;6.47;;;;;;;;;;4992794;28;20246;-81
2022/11/19 06:49:04;;;;;;;10.13;7.03;;;;;;;;;;4993448;28;20264;-82
2022/11/19 06:51:32;;;;;;;7.30;6.33;;;;;;;;;;4968133;28;20320;-82
2022/11/19 06:53:59;;;;;;;8.23;7.07;;;;;;;;;;4973911;28;20258;-81
2022/11/19 06:56:26;;;;;;;9.27;7.10;;;;;;;;;;4982868;28;20235;-81
2022/11/19 06:58:58;;;;;;;9.43;7.50;;;;;;;;;;4973276;28;20579;-81
2022/11/19 07:01:25;;;;;;;8.87;7.97;;;;;;;;;;4963887;28;20236;-81
2022/11/19 07:03:52;;;;;;;11.30;6.70;;;;;;;;;;4963941;28;20231;-81
2022/11/19 07:06:19;;;;;;;8.77;7.40;;;;;;;;;;4989483;28;20234;-81
2022/11/19 07:08:46;;;;;;;8.87;7.50;;;;;;;;;;5012588;28;20210;-81
2022/11/19 07:11:25;;;;;;;8.40;7.50;;;;;;;;;;5003830;28;20736;-81
2022/11/19 07:13:59;;;;;;;9.33;7.33;;;;;;;;;;4992707;28;20711;-81
2022/11/19 07:16:29;;;;;;;14.10;7.47;;;;;;;;;;4975724;28;20633;-81
2022/11/19 07:19:00;;;;;;;10.03;8.00;;;;;;;;;;4987889;28;20196;-81
2022/11/19 07:21:27;;;;;;;10.40;7.63;;;;;;;;;;4972656;28;20231;-78
2022/11/19 07:23:55;;;;;;;9.70;7.50;;;;;;;;;;4972729;28;20588;-81
2022/11/19 07:26:22;;;;;;;9.83;7.50;;;;;;;;;;4972697;28;20724;-81
2022/11/19 07:28:49;;;;;;;9.83;8.10;;;;;;;;;;4972750;28;20252;-81
2022/11/19 07:31:16;;;;;;;10.67;8.13;;;;;;;;;;4975078;28;20235;-81
2022/11/19 07:33:45;;;;;;;8.33;7.43;;;;;;;;;;4992318;28;20232;-81
2022/11/19 07:36:12;;;;;;;9.30;7.60;;;;;;;;;;4991713;28;20241;-83
2022/11/19 07:38:39;;;;;;;9.17;7.90;;;;;;;;;;4991830;28;20204;-82
2022/11/19 07:42:47;;;;;;;10.83;7.83;;;;;;;;;;4972316;28;20235;-82
2022/11/19 07:43:53;;;;;;;9.17;8.13;;;;;;;;;;4972459;28;20775;-82
2022/11/19 07:46:20;;;;;;;10.60;8.27;;;;;;;;;;4971179;28;20236;-82
2022/11/19 07:48:52;;;;;;;9.40;7.97;;;;;;;;;;4972590;28;20189;-82
2022/11/19 07:51:19;;;;;;;10.80;8.40;;;;;;;;;;4977024;28;20250;-83
2022/11/19 07:53:46;;;;;;;9.23;7.93;;;;;;;;;;4989836;28;20228;-81
2022/11/19 07:56:13;;;;;;;9.90;8.10;;;;;;;;;;4990872;28;20601;-81
2022/11/19 07:58:40;;;;;;;10.67;8.47;;;;;;;;;;4991679;28;20252;-81
2022/11/19 08:01:08;;;;;;;9.63;7.97;;;;;;;;;;4979052;28;20298;-82
2022/11/19 08:03:36;;;;;;;13.97;8.73;;;;;;;;;;4972829;28;20364;-82
2022/11/19 08:06:05;;;;;;;10.43;8.17;;;;;;;;;;4976000;28;20245;-82
2022/11/19 08:08:32;;;;;;;8.63;7.73;;;;;;;;;;4991554;28;20210;-82
2022/11/19 08:11:03;;;;;;;9.83;7.97;;;;;;;;;;4991351;28;20347;-82
2022/11/19 08:13:30;;;;;;;10.23;8.57;;;;;;;;;;4972427;28;20235;-81
2022/11/19 08:15:59;;;;;;;9.70;8.33;;;;;;;;;;4966450;28;20238;-81
2022/11/19 08:18:26;;;;;;;12.23;8.70;;;;;;;;;;4959712;28;20640;-82
2022/11/19 08:20:53;;;;;;;10.17;8.87;;;;;;;;;;4967556;28;20233;-79
2022/11/19 08:23:22;;;;;;;10.83;8.97;;;;;;;;;;4966984;28;20224;-81
2022/11/19 08:25:51;;;;;;;12.53;8.40;;;;;;;;;;4964498;28;20646;-81
2022/11/19 08:28:18;;;;;;;10.40;8.73;;;;;;;;;;4966711;28;20206;-81
2022/11/19 08:30:46;;;;;;;9.33;8.30;;;;;;;;;;4965562;28;20226;-80
2022/11/19 08:33:13;;;;;;;11.17;8.33;;;;;;;;;;4962270;28;20232;-80
2022/11/19 08:35:40;;;;;;;11.47;9.20;;;;;;;;;;4966221;28;20761;-80
2022/11/19 08:38:07;;;;;;;11.93;9.27;;;;;;;;;;4980171;28;20199;-81
2022/11/19 08:40:36;;;;;;;12.27;8.87;;;;;;;;;;4990053;28;20264;-80
2022/11/19 08:43:03;;;;;;;12.73;8.83;;;;;;;;;;4990844;28;20236;-80
2022/11/19 08:45:31;;;;;;;12.33;8.93;;;;;;;;;;4979551;28;20310;-80
2022/11/19 08:47:59;;;;;;;11.40;9.17;;;;;;;;;;4990576;28;20420;-81
2022/11/19 08:50:26;;;;;;;10.57;8.67;;;;;;;;;;4986762;28;20259;-81
2022/11/19 08:52:54;;;;;;;9.87;8.23;;;;;;;;;;4985193;28;20239;-82
2022/11/19 08:55:21;;;;;;;10.40;8.80;;;;;;;;;;4987374;28;20577;-80
2022/11/19 08:57:49;;;;;;;12.17;9.17;;;;;;;;;;4986905;28;20215;-81
2022/11/19 09:00:18;;;;;;;13.27;9.03;;;;;;;;;;4985606;28;20792;-80
2022/11/19 09:02:46;;;;;;;10.27;8.80;;;;;;;;;;4984744;28;20233;-81
2022/11/19 09:05:13;;;;;;;8.90;8.00;;;;;;;;;;4988675;28;20581;-82
2022/11/19 09:07:40;;;;;;;10.20;8.37;;;;;;;;;;4990763;28;20310;-82
2022/11/19 09:10:08;;;;;;;11.73;8.70;;;;;;;;;;4987354;28;20215;-82
2022/11/19 09:12:35;;;;;;;9.97;7.47;;;;;;;;;;4989799;28;20703;-82
2022/11/19 09:15:03;;;;;;;9.83;8.17;;;;;;;;;;4989758;28;20213;-81
2022/11/19 09:17:31;;;;;;;12.67;8.80;;;;;;;;;;4989003;28;20237;-82
2022/11/19 09:19:58;;;;;;;10.43;8.63;;;;;;;;;;4988222;28;20210;-82
2022/11/19 09:22:25;;;;;;;12.47;9.47;;;;;;;;;;4991225;28;20233;-82
2022/11/19 09:24:52;;;;;;;9.67;8.20;;;;;;;;;;4992079;28;20206;-82
2022/11/19 09:27:19;;;;;;;11.17;9.03;;;;;;;;;;4992130;28;20233;-82
2022/11/19 09:29:46;;;;;;;8.70;7.80;;;;;;;;;;4993517;28;20212;-82
2022/11/19 09:32:15;;;;;;;14.97;9.50;;;;;;;;;;4990582;28;20252;-81
2022/11/19 09:34:42;;;;;;;14.87;7.93;;;;;;;;;;4991099;28;20790;-82
2022/11/19 09:37:09;;;;;;;10.20;8.57;;;;;;;;;;4992322;28;20235;-82
2022/11/19 09:39:37;;;;;;;8.90;8.00;;;;;;;;;;4992293;28;20219;-82
2022/11/19 09:42:12;;;;;;;9.47;8.10;;;;;;;;;;4993580;28;20239;-82
2022/11/19 09:44:44;;;;;;;10.50;7.87;;;;;;;;;;4992573;28;20263;-81
2022/11/19 09:47:20;;;;;;;9.70;7.73;;;;;;;;;;4991582;28;20232;-81
2022/11/19 09:49:50;;;;;;;8.97;7.60;;;;;;;;;;4991056;28;20669;-81
2022/11/19 09:52:19;;;;;;;8.40;7.50;;;;;;;;;;4991246;28;20247;-82
2022/11/19 09:54:48;;;;;;;9.20;7.07;;;;;;;;;;4991415;28;20211;-82
2022/11/19 09:57:17;;;;;;;11.13;8.53;;;;;;;;;;4993380;28;20231;-82
2022/11/19 09:59:44;;;;;;;10.97;8.13;;;;;;;;;;4992195;28;20223;-82
2022/11/19 10:02:15;;;;;;;10.03;8.43;;;;;;;;;;4990642;28;20233;-82
2022/11/19 10:04:45;;;;;;;8.70;7.80;;;;;;;;;;4992704;28;20210;-82
2022/11/19 10:07:14;;;;;;;10.77;8.23;;;;;;;;;;4991802;28;20235;-82
2022/11/19 10:09:59;;;;;;;11.50;7.27;;;;;;;;;;4991929;28;20219;-82
2022/11/19 10:12:31;;;;;;;9.73;7.60;;;;;;;;;;4991776;28;20237;-82
2022/11/19 10:15:04;;;;;;;11.00;7.63;;;;;;;;;;4992508;28;20879;-82
2022/11/19 10:17:40;;;;;;;9.73;7.50;;;;;;;;;;4991138;28;20246;-82
2022/11/19 10:20:21;;;;;;;10.10;7.63;;;;;;;;;;4990622;28;20559;-83
2022/11/19 10:22:51;;;;;;;8.27;6.87;;;;;;;;;;4988018;28;20590;-83
2022/11/19 10:25:20;;;;;;;8.93;7.40;;;;;;;;;;4988095;28;20222;-82
2022/11/19 10:27:48;;;;;;;9.97;7.83;;;;;;;;;;4968593;28;20844;-83
2022/11/19 10:30:18;;;;;;;9.57;7.73;;;;;;;;;;4970154;28;20215;-82
2022/11/19 10:32:49;;;;;;;8.53;7.20;;;;;;;;;;4968918;28;20638;-83
2022/11/19 10:35:20;;;;;;;10.87;8.23;;;;;;;;;;4970107;28;20213;-84
2022/11/19 10:37:51;;;;;;;9.90;8.07;;;;;;;;;;4968926;28;20210;-84
2022/11/19 10:40:20;;;;;;;13.17;7.87;;;;;;;;;;4966084;28;20208;-85
2022/11/19 10:42:48;;;;;;;11.67;8.10;;;;;;;;;;4968775;28;20660;-85
2022/11/19 10:45:17;;;;;;;8.80;7.20;;;;;;;;;;4970152;28;20209;-84
2022/11/19 10:47:47;;;;;;;10.40;7.87;;;;;;;;;;4973565;28;20213;-85
2022/11/19 10:50:19;;;;;;;10.37;7.90;;;;;;;;;;4973799;28;20194;-79
2022/11/19 10:52:49;;;;;;;9.37;7.73;;;;;;;;;;4969619;28;20594;-79
2022/11/19 10:55:19;;;;;;;10.73;7.87;;;;;;;;;;4963616;28;20212;-79
2022/11/19 10:57:47;;;;;;;10.33;7.43;;;;;;;;;;4969024;28;20207;-78
2022/11/19 11:00:15;;;;;;;7.23;6.50;;;;;;;;;;4972005;28;20197;-78
2022/11/19 11:02:44;;;;;;;10.40;7.30;;;;;;;;;;4972073;28;20248;-79
2022/11/19 11:05:14;;;;;;;9.37;7.40;;;;;;;;;;4972665;28;20216;-79
2022/11/19 11:07:59;;;;;;;9.33;7.67;;;;;;;;;;4971722;28;20284;-78
2022/11/19 11:10:44;;;;;;;10.07;8.33;;;;;;;;;;4972506;28;20255;-79
2022/11/19 11:16:07;;;;;;;12.13;7.23;;;;;;;;;;4962145;28;20348;-78
2022/11/19 11:18:34;;;;;;;8.87;7.47;;;;;;;;;;4972527;28;20665;-78
2022/11/19 11:21:01;;;;;;;11.30;7.40;;;;;;;;;;4978309;28;20651;-78
2022/11/19 11:23:30;;;;;;;9.43;6.73;;;;;;;;;;4992182;28;20232;-78
2022/11/19 11:26:01;;;;;;;10.60;7.73;;;;;;;;;;4991205;28;20290;-78
2022/11/19 11:28:29;;;;;;;8.67;7.00;;;;;;;;;;4991230;28;20580;-78
2022/11/19 11:30:57;;;;;;;8.03;7.23;;;;;;;;;;5007760;28;20228;-78
2022/11/19 11:33:27;;;;;;;6.97;5.83;;;;;;;;;;4998902;28;20232;-78
2022/11/19 11:35:55;;;;;;;8.50;7.30;;;;;;;;;;4991264;28;20302;-77
2022/11/19 11:38:23;;;;;;;10.67;7.03;;;;;;;;;;4991854;28;20577;-77
2022/11/19 11:40:57;;;;;;;8.77;7.00;;;;;;;;;;4991011;28;20236;-77
2022/11/19 11:43:24;;;;;;;8.10;6.80;;;;;;;;;;4991499;28;20231;-77
2022/11/19 11:45:57;;;;;;;6.77;6.07;;;;;;;;;;4991098;28;20239;-76
2022/11/19 11:48:24;;;;;;;6.60;5.90;;;;;;;;;;4972262;28;20205;-77
2022/11/19 11:50:51;;;;;;;8.00;6.13;;;;;;;;;;4971841;28;20236;-76
2022/11/19 11:53:28;;;;;;;7.40;6.20;;;;;;;;;;4972023;28;20233;-76
2022/11/19 11:55:57;;;;;;;6.23;5.57;;;;;;;;;;4971389;28;20316;-77
2022/11/19 11:58:25;;;;;;;6.43;5.40;;;;;;;;;;4995235;28;20663;-77
2022/11/19 12:00:54;;;;;;;7.03;6.00;;;;;;;;;;5010475;28;20338;-77
2022/11/19 12:03:22;;;;;;;6.40;5.73;;;;;;;;;;5007321;28;20232;-77
2022/11/19 12:05:56;;;;;;;6.37;5.73;;;;;;;;;;4990820;28;20612;-77
2022/11/19 12:08:33;;;;;;;6.23;5.63;;;;;;;;;;4991366;28;20212;-77
2022/11/19 12:11:02;;;;;;;6.83;5.97;;;;;;;;;;4971679;28;20236;-77
2022/11/19 12:13:53;;;;;;;6.17;5.43;;;;;;;;;;4972100;28;20247;-77
2022/11/19 12:16:27;;;;;;;7.23;5.77;;;;;;;;;;4957040;28;20830;-77
2022/11/19 12:19:03;;;;;;;7.40;5.70;;;;;;;;;;4975806;28;20198;-77
2022/11/19 12:21:37;;;;;;;6.17;5.50;;;;;;;;;;4988099;28;20241;-78
2022/11/19 12:24:13;;;;;;;6.00;5.40;;;;;;;;;;4991262;28;20234;-78
2022/11/19 12:26:46;;;;;;;8.43;6.67;;;;;;;;;;4986106;28;20263;-77
2022/11/19 12:29:18;;;;;;;7.37;5.83;;;;;;;;;;4986058;28;20415;-76
2022/11/19 12:31:51;;;;;;;5.80;5.23;;;;;;;;;;4971046;28;20239;-77
2022/11/19 12:34:31;;;;;;;5.90;5.30;;;;;;;;;;4971588;28;20239;-76
2022/11/19 12:37:01;;;;;;;6.40;5.27;;;;;;;;;;4972704;28;20237;-79
2022/11/19 12:39:35;;;;;;;6.90;5.87;;;;;;;;;;4985920;28;20212;-76
2022/11/19 12:42:17;;;;;;;6.33;5.60;;;;;;;;;;4993162;28;20240;-77
2022/11/19 12:44:47;;;;;;;7.20;6.10;;;;;;;;;;4994701;28;20202;-76
2022/11/19 12:47:20;;;;;;;7.23;5.77;;;;;;;;;;4994584;28;20602;-77
2022/11/19 12:49:56;;;;;;;6.70;5.90;;;;;;;;;;4994430;28;20193;-76
2022/11/19 12:52:35;;;;;;;8.40;6.93;;;;;;;;;;4974813;28;20302;-76
2022/11/19 12:55:09;;;;;;;7.20;6.33;;;;;;;;;;4985235;28;20215;-76
2022/11/19 12:57:43;;;;;;;7.07;6.27;;;;;;;;;;4994147;28;20606;-75
2022/11/19 13:00:12;;;;;;;7.30;5.97;;;;;;;;;;4994763;28;20216;-76
2022/11/19 13:02:42;;;;;;;7.43;6.33;;;;;;;;;;4993592;28;20244;-75
2022/11/19 13:05:14;;;;;;;7.20;6.30;;;;;;;;;;4994144;28;20652;-75
2022/11/19 13:07:43;;;;;;;7.70;6.70;;;;;;;;;;4993904;28;20226;-76
2022/11/19 13:10:15;;;;;;;6.87;6.27;;;;;;;;;;4994544;28;20208;-75
2022/11/19 13:12:44;;;;;;;7.90;6.57;;;;;;;;;;4994257;28;20250;-75
2022/11/19 13:15:15;;;;;;;8.20;6.80;;;;;;;;;;4994450;28;20230;-75
2022/11/19 13:17:44;;;;;;;7.40;6.17;;;;;;;;;;4974452;28;20712;-75
2022/11/19 13:20:15;;;;;;;7.80;6.83;;;;;;;;;;4986278;28;20220;-75
2022/11/19 13:22:44;;;;;;;7.03;6.17;;;;;;;;;;4993616;28;20298;-76
2022/11/19 13:25:16;;;;;;;8.53;7.03;;;;;;;;;;4993998;28;20215;-76
2022/11/19 13:27:44;;;;;;;7.60;6.80;;;;;;;;;;4993436;28;20240;-74
2022/11/19 13:30:17;;;;;;;10.03;6.50;;;;;;;;;;4975184;28;20219;-75
2022/11/19 13:32:48;;;;;;;9.27;7.40;;;;;;;;;;4993323;28;20271;-75
2022/11/19 13:35:20;;;;;;;7.07;6.20;;;;;;;;;;4993480;28;20205;-77
2022/11/19 13:37:51;;;;;;;7.90;7.10;;;;;;;;;;4989344;28;20208;-76
2022/11/19 13:40:22;;;;;;;7.87;6.80;;;;;;;;;;4984973;28;20672;-77
2022/11/19 13:45:35;;;;;;;8.77;7.10;;;;;;;;;;4998285;28;20208;-77
2022/11/19 13:48:04;;;;;;;8.10;7.07;;;;;;;;;;5012940;28;20281;-76
2022/11/19 13:50:34;;;;;;;10.80;6.60;;;;;;;;;;5011928;28;20214;-76
2022/11/19 13:53:03;;;;;;;10.63;7.97;;;;;;;;;;5013278;28;20373;-76
2022/11/19 13:55:33;;;;;;;11.10;7.93;;;;;;;;;;4993670;28;20317;-77
2022/11/19 13:58:08;;;;;;;12.67;8.50;;;;;;;;;;4993016;28;20254;-77
2022/11/19 14:00:35;;;;;;;11.63;8.47;;;;;;;;;;4992932;28;20268;-77
2022/11/19 14:03:09;;;;;;;11.37;9.33;;;;;;;;;;5002114;28;20239;-77
2022/11/19 14:05:43;;;;;;;13.03;9.30;;;;;;;;;;5012739;28;20230;-77
2022/11/19 14:08:16;;;;;;;13.97;9.20;;;;;;;;;;5012916;28;20604;-76
2022/11/19 14:10:45;;;;;;;11.23;8.63;;;;;;;;;;4993761;28;20231;-77
2022/11/19 14:13:24;;;;;;;11.70;9.30;;;;;;;;;;4993161;28;20239;-76
2022/11/19 14:27:36;;;;;;;10.27;8.07;;;;;;;;;;4990542;28;20769;-76
2022/11/19 14:30:05;;;;;;;14.60;9.40;;;;;;;;;;4983038;28;20541;-76
2022/11/19 14:32:36;;;;;;;14.40;9.53;;;;;;;;;;4988912;28;20240;-76
2022/11/19 14:35:18;;;;;;;10.73;8.40;;;;;;;;;;4992649;28;20218;-76
2022/11/19 14:37:48;;;;;;;12.70;8.93;;;;;;;;;;4963669;28;20233;-76
2022/11/19 14:40:17;;;;;;;13.77;10.00;;;;;;;;;;4972323;28;20205;-77
2022/11/19 14:46:15;;;;;;;13.33;8.47;;;;;;;;;;4972516;28;20285;-76
2022/11/19 14:48:49;;;;;;;12.37;9.50;;;;;;;;;;4973112;28;20213;-76
2022/11/19 14:51:18;;;;;;;11.73;9.03;;;;;;;;;;4980949;28;20233;-76
2022/11/19 14:53:50;;;;;;;10.03;8.80;;;;;;;;;;4991008;28;20228;-76
2022/11/19 14:56:20;;;;;;;12.90;9.23;;;;;;;;;;4992242;28;20237;-76
2022/11/19 14:58:51;;;;;;;12.40;9.03;;;;;;;;;;4992202;28;20202;-76
2022/11/19 15:01:19;;;;;;;11.23;8.87;;;;;;;;;;4991689;28;20235;-76
2022/11/19 15:03:48;;;;;;;14.60;9.53;;;;;;;;;;4991681;28;20229;-76
2022/11/19 15:06:17;;;;;;;14.00;9.17;;;;;;;;;;4991699;28;20235;-76
2022/11/19 15:08:48;;;;;;;12.10;9.40;;;;;;;;;;4991693;28;20312;-76
2022/11/19 15:11:16;;;;;;;13.90;10.20;;;;;;;;;;4994490;28;20232;-76
2022/11/19 15:13:44;;;;;;;13.10;9.20;;;;;;;;;;4991540;28;20758;-76
2022/11/19 15:16:13;;;;;;;12.23;9.40;;;;;;;;;;4991713;28;20236;-76
2022/11/19 15:19:00;;;;;;;12.20;9.60;;;;;;;;;;4991125;28;20209;-76
2022/11/19 15:21:34;;;;;;;13.67;9.00;;;;;;;;;;4990001;28;20231;-76
2022/11/19 15:24:10;;;;;;;11.83;8.97;;;;;;;;;;4991198;28;20754;-76
2022/11/19 15:26:45;;;;;;;12.30;8.90;;;;;;;;;;4990801;28;20223;-76
2022/11/19 15:29:17;;;;;;;10.80;8.93;;;;;;;;;;4992548;28;20249;-76
2022/11/19 15:31:51;;;;;;;10.53;9.10;;;;;;;;;;4988549;28;20233;-76